Time;durP1;ratioP1;P1;durP2;ratioP2;P2;SDS_P1;SDS_P2;PMS_P1;PMS_P2;Temp;Humidity;BMP_temperature;BMP_pressure;BME280_temperature;BME280_humidity;BME280_pressure;Samples;Min_cycle;Max_cycle;Signal;HPM_P1;HPM_P2
2022/05/10 00:01:24;;;;;;;12.27;1.60;;;;;;;;;;5091376;28;20227;-69
2022/05/10 00:03:53;;;;;;;14.23;2.03;;;;;;;;;;5091853;28;20195;-69
2022/05/10 00:06:21;;;;;;;17.13;2.15;;;;;;;;;;5094646;28;20216;-69
2022/05/10 00:08:48;;;;;;;13.95;2.08;;;;;;;;;;5096205;28;20218;-69
2022/05/10 00:11:16;;;;;;;13.80;2.08;;;;;;;;;;5095578;28;20679;-68
2022/05/10 00:13:43;;;;;;;17.63;2.30;;;;;;;;;;5095664;28;20687;-69
2022/05/10 00:16:11;;;;;;;15.40;2.13;;;;;;;;;;5095783;28;20200;-69
2022/05/10 00:18:39;;;;;;;13.98;1.83;;;;;;;;;;5095830;28;20199;-69
2022/05/10 00:21:08;;;;;;;14.18;2.35;;;;;;;;;;5095399;28;20239;-69
2022/05/10 00:23:36;;;;;;;14.20;2.40;;;;;;;;;;5095292;28;20231;-68
2022/05/10 00:26:03;;;;;;;15.02;2.15;;;;;;;;;;5095418;28;20204;-69
2022/05/10 00:28:31;;;;;;;12.65;1.75;;;;;;;;;;5095742;28;20200;-68
2022/05/10 00:30:58;;;;;;;16.80;2.00;;;;;;;;;;5095506;28;20287;-68
2022/05/10 00:33:28;;;;;;;15.57;2.13;;;;;;;;;;5095121;28;20199;-68
2022/05/10 00:35:57;;;;;;;12.50;1.88;;;;;;;;;;5095423;28;20204;-68
2022/05/10 00:38:28;;;;;;;13.20;1.83;;;;;;;;;;5095133;28;20199;-68
2022/05/10 00:40:56;;;;;;;14.48;2.28;;;;;;;;;;5095350;28;20192;-68
2022/05/10 00:43:26;;;;;;;12.88;2.03;;;;;;;;;;5095014;28;20200;-68
2022/05/10 00:45:56;;;;;;;12.73;2.00;;;;;;;;;;5095087;28;20204;-69
2022/05/10 00:48:28;;;;;;;11.80;1.50;;;;;;;;;;5095392;28;20200;-68
2022/05/10 00:50:57;;;;;;;12.57;1.85;;;;;;;;;;5094955;28;20196;-68
2022/05/10 00:53:28;;;;;;;11.95;1.88;;;;;;;;;;5094796;28;20206;-68
2022/05/10 00:55:58;;;;;;;12.98;2.20;;;;;;;;;;5094918;28;20195;-68
2022/05/10 00:58:28;;;;;;;13.32;2.20;;;;;;;;;;5094755;28;20206;-69
2022/05/10 01:00:56;;;;;;;15.30;2.22;;;;;;;;;;5094734;28;20196;-68
2022/05/10 01:03:26;;;;;;;12.02;1.80;;;;;;;;;;5094823;28;20203;-68
2022/05/10 01:06:01;;;;;;;21.63;1.80;;;;;;;;;;5094999;28;20537;-68
2022/05/10 01:08:32;;;;;;;12.80;1.90;;;;;;;;;;5094650;28;20201;-68
2022/05/10 01:11:03;;;;;;;13.63;2.00;;;;;;;;;;5094601;28;20200;-68
2022/05/10 01:13:32;;;;;;;12.00;1.75;;;;;;;;;;5094589;28;20200;-68
2022/05/10 01:16:05;;;;;;;16.17;2.13;;;;;;;;;;5094339;28;20200;-68
2022/05/10 01:18:33;;;;;;;12.60;2.05;;;;;;;;;;5094125;28;20203;-68
2022/05/10 01:21:03;;;;;;;15.48;2.08;;;;;;;;;;5094476;28;20720;-68
2022/05/10 01:23:42;;;;;;;15.32;2.28;;;;;;;;;;5094068;28;20238;-68
2022/05/10 01:26:13;;;;;;;12.38;1.70;;;;;;;;;;5094276;28;20286;-68
2022/05/10 01:28:43;;;;;;;12.43;2.00;;;;;;;;;;5094364;28;20206;-68
2022/05/10 01:31:14;;;;;;;12.68;2.00;;;;;;;;;;5094023;28;20208;-68
2022/05/10 01:33:43;;;;;;;12.35;1.90;;;;;;;;;;5094214;28;20199;-68
2022/05/10 01:36:30;;;;;;;13.48;2.40;;;;;;;;;;5094431;28;20203;-68
2022/05/10 01:39:02;;;;;;;15.00;2.17;;;;;;;;;;5094271;28;20200;-68
2022/05/10 01:41:35;;;;;;;14.75;2.63;;;;;;;;;;5093930;28;20240;-68
2022/05/10 01:44:07;;;;;;;17.58;2.30;;;;;;;;;;5093947;28;20203;-68
2022/05/10 01:46:35;;;;;;;12.88;2.05;;;;;;;;;;5094128;28;20304;-68
2022/05/10 01:49:07;;;;;;;12.73;2.17;;;;;;;;;;5093848;28;20664;-68
2022/05/10 01:51:37;;;;;;;13.57;2.60;;;;;;;;;;5093540;28;20583;-68
2022/05/10 01:54:04;;;;;;;14.35;2.30;;;;;;;;;;5093764;28;20686;-68
2022/05/10 01:56:34;;;;;;;16.77;2.10;;;;;;;;;;5093821;28;20194;-68
2022/05/10 01:59:02;;;;;;;14.07;2.20;;;;;;;;;;5093693;28;20202;-68
2022/05/10 02:01:33;;;;;;;16.50;2.10;;;;;;;;;;5093726;28;20201;-68
2022/05/10 02:04:04;;;;;;;13.80;2.53;;;;;;;;;;5093871;28;20204;-68
2022/05/10 02:06:33;;;;;;;12.48;2.45;;;;;;;;;;5093550;28;20229;-68
2022/05/10 02:09:03;;;;;;;13.65;2.03;;;;;;;;;;5093424;28;20206;-68
2022/05/10 02:11:33;;;;;;;21.45;2.80;;;;;;;;;;5093415;28;20433;-68
2022/05/10 02:14:04;;;;;;;12.63;2.10;;;;;;;;;;5093433;28;20196;-68
2022/05/10 02:16:35;;;;;;;12.88;2.20;;;;;;;;;;5093554;28;20198;-68
2022/05/10 02:19:05;;;;;;;14.88;2.42;;;;;;;;;;5093274;28;20704;-68
2022/05/10 02:21:38;;;;;;;12.52;2.00;;;;;;;;;;5092992;28;20198;-68
2022/05/10 02:24:09;;;;;;;16.70;2.03;;;;;;;;;;5093362;28;20234;-68
2022/05/10 02:26:39;;;;;;;13.18;1.77;;;;;;;;;;5093094;28;20208;-68
2022/05/10 02:29:10;;;;;;;11.95;1.90;;;;;;;;;;5093182;28;20238;-68
2022/05/10 02:34:25;;;;;;;14.48;2.30;;;;;;;;;;5093123;28;20226;-68
2022/05/10 02:36:52;;;;;;;15.80;3.20;;;;;;;;;;5093175;28;20204;-68
2022/05/10 02:39:20;;;;;;;13.60;2.00;;;;;;;;;;5092784;28;20197;-68
2022/05/10 02:41:48;;;;;;;16.10;2.60;;;;;;;;;;5092997;28;20598;-68
2022/05/10 02:44:15;;;;;;;13.85;2.92;;;;;;;;;;5092826;28;20657;-68
2022/05/10 02:46:44;;;;;;;12.82;2.30;;;;;;;;;;5092735;28;20196;-68
2022/05/10 02:49:12;;;;;;;12.65;1.95;;;;;;;;;;5092534;28;20713;-68
2022/05/10 02:51:39;;;;;;;15.95;2.88;;;;;;;;;;5092798;28;20197;-68
2022/05/10 02:54:07;;;;;;;13.73;2.00;;;;;;;;;;5092640;28;20196;-68
2022/05/10 02:56:34;;;;;;;14.27;2.28;;;;;;;;;;5092838;28;20201;-68
2022/05/10 02:59:04;;;;;;;14.30;2.90;;;;;;;;;;5092646;28;20209;-68
2022/05/10 03:01:34;;;;;;;13.90;2.20;;;;;;;;;;5092134;28;20199;-68
2022/05/10 03:04:04;;;;;;;13.82;3.08;;;;;;;;;;5093257;28;20197;-68
2022/05/10 03:06:32;;;;;;;14.07;2.47;;;;;;;;;;5093147;28;20231;-68
2022/05/10 03:09:00;;;;;;;15.35;2.15;;;;;;;;;;5092384;28;20193;-68
2022/05/10 03:11:28;;;;;;;14.25;2.50;;;;;;;;;;5092159;28;20240;-68
2022/05/10 03:13:56;;;;;;;12.15;2.00;;;;;;;;;;5092111;28;20200;-68
2022/05/10 03:16:25;;;;;;;13.13;2.15;;;;;;;;;;5092409;28;20577;-68
2022/05/10 03:18:53;;;;;;;12.35;2.17;;;;;;;;;;5092151;28;20216;-68
2022/05/10 03:21:22;;;;;;;13.13;2.08;;;;;;;;;;5091939;28;20205;-68
2022/05/10 03:23:49;;;;;;;13.20;2.53;;;;;;;;;;5091912;28;20743;-68
2022/05/10 03:26:17;;;;;;;12.85;2.55;;;;;;;;;;5091942;28;20205;-68
2022/05/10 03:28:44;;;;;;;12.95;2.10;;;;;;;;;;5092146;28;20195;-68
2022/05/10 03:31:13;;;;;;;13.10;2.55;;;;;;;;;;5092238;28;20202;-68
2022/05/10 03:33:41;;;;;;;18.83;3.08;;;;;;;;;;5092516;28;20230;-68
2022/05/10 03:36:08;;;;;;;24.77;6.15;;;;;;;;;;5092005;28;20204;-68
2022/05/10 03:38:37;;;;;;;17.88;3.53;;;;;;;;;;5091912;28;20577;-68
2022/05/10 03:41:04;;;;;;;12.65;2.15;;;;;;;;;;5091398;28;20200;-68
2022/05/10 03:43:32;;;;;;;14.95;2.47;;;;;;;;;;5091604;28;20238;-68
2022/05/10 03:46:05;;;;;;;16.13;3.50;;;;;;;;;;5092001;28;20195;-68
2022/05/10 03:48:33;;;;;;;15.98;2.58;;;;;;;;;;5091954;28;20202;-68
2022/05/10 03:51:01;;;;;;;17.92;4.13;;;;;;;;;;5091945;28;20203;-68
2022/05/10 03:53:29;;;;;;;16.33;3.47;;;;;;;;;;5091781;28;20552;-68
2022/05/10 03:55:57;;;;;;;14.85;3.28;;;;;;;;;;5092753;28;20192;-68
2022/05/10 03:58:25;;;;;;;13.37;2.70;;;;;;;;;;5091737;28;20207;-69
2022/05/10 04:00:52;;;;;;;13.65;2.60;;;;;;;;;;5091686;28;20832;-68
2022/05/10 04:03:20;;;;;;;18.63;4.20;;;;;;;;;;5091513;28;20324;-68
2022/05/10 04:05:48;;;;;;;24.00;5.78;;;;;;;;;;5091630;28;20217;-68
2022/05/10 04:08:15;;;;;;;20.90;5.30;;;;;;;;;;5092102;28;20199;-68
2022/05/10 04:10:43;;;;;;;17.60;4.05;;;;;;;;;;5091603;28;20208;-68
2022/05/10 04:13:11;;;;;;;18.50;4.80;;;;;;;;;;5091364;28;20201;-69
2022/05/10 04:15:39;;;;;;;15.27;2.90;;;;;;;;;;5091614;28;20469;-69
2022/05/10 04:18:07;;;;;;;14.13;3.03;;;;;;;;;;5091627;28;20525;-69
2022/05/10 04:20:34;;;;;;;14.97;2.70;;;;;;;;;;5091529;28;20823;-69
2022/05/10 04:23:02;;;;;;;13.20;2.20;;;;;;;;;;5091484;28;20488;-69
2022/05/10 04:25:30;;;;;;;17.27;2.30;;;;;;;;;;5091708;28;20434;-69
2022/05/10 04:27:57;;;;;;;13.30;1.80;;;;;;;;;;5091536;28;20460;-69
2022/05/10 04:30:26;;;;;;;15.13;2.60;;;;;;;;;;5091800;28;20434;-69
2022/05/10 04:32:53;;;;;;;18.93;2.60;;;;;;;;;;5091372;28;20441;-69
2022/05/10 04:35:21;;;;;;;16.73;2.80;;;;;;;;;;5091075;28;20453;-69
2022/05/10 04:37:48;;;;;;;15.53;2.80;;;;;;;;;;5091536;28;20449;-69
2022/05/10 04:42:58;;;;;;;20.07;2.70;;;;;;;;;;5057817;28;20489;-69
2022/05/10 04:45:27;;;;;;;15.30;2.50;;;;;;;;;;5090975;28;20454;-69
2022/05/10 04:47:54;;;;;;;12.63;2.17;;;;;;;;;;5091324;28;20495;-69
2022/05/10 04:50:22;;;;;;;15.47;2.70;;;;;;;;;;5091338;28;20982;-68
2022/05/10 04:52:49;;;;;;;14.43;2.53;;;;;;;;;;5094839;28;20965;-69
2022/05/10 04:55:17;;;;;;;15.87;2.30;;;;;;;;;;5094808;28;20441;-69
2022/05/10 04:57:44;;;;;;;15.40;2.23;;;;;;;;;;5094741;28;20452;-69
2022/05/10 05:00:14;;;;;;;16.10;2.40;;;;;;;;;;5094687;28;20449;-69
2022/05/10 05:02:43;;;;;;;15.53;2.23;;;;;;;;;;5094623;28;20485;-69
2022/05/10 05:05:12;;;;;;;15.13;2.57;;;;;;;;;;5095025;28;20857;-69
2022/05/10 05:07:39;;;;;;;12.40;1.97;;;;;;;;;;5094596;28;20470;-69
2022/05/10 05:10:07;;;;;;;12.73;1.90;;;;;;;;;;5094601;28;20967;-68
2022/05/10 05:12:35;;;;;;;11.50;1.40;;;;;;;;;;5094532;28;20450;-69
2022/05/10 05:15:04;;;;;;;15.40;2.40;;;;;;;;;;5094780;28;20446;-69
2022/05/10 05:17:32;;;;;;;14.10;1.90;;;;;;;;;;5094549;28;20448;-69
2022/05/10 05:20:01;;;;;;;13.00;2.00;;;;;;;;;;5094534;28;20442;-69
2022/05/10 05:22:28;;;;;;;14.93;2.20;;;;;;;;;;5094525;28;20452;-69
2022/05/10 05:24:56;;;;;;;17.80;1.70;;;;;;;;;;5094166;28;20489;-69
2022/05/10 05:27:23;;;;;;;14.53;2.30;;;;;;;;;;5094001;28;20805;-69
2022/05/10 05:29:51;;;;;;;13.77;2.17;;;;;;;;;;5094453;28;20840;-69
2022/05/10 05:32:20;;;;;;;12.63;2.13;;;;;;;;;;5094459;28;20458;-69
2022/05/10 05:34:48;;;;;;;13.37;2.13;;;;;;;;;;5094208;28;20443;-69
2022/05/10 05:37:35;;;;;;;16.00;3.03;;;;;;;;;;5093937;28;20818;-69
2022/05/10 05:40:02;;;;;;;19.37;2.40;;;;;;;;;;5094118;28;20448;-69
2022/05/10 05:42:30;;;;;;;13.93;1.87;;;;;;;;;;5093945;28;20469;-69
2022/05/10 05:44:58;;;;;;;13.23;2.23;;;;;;;;;;5094024;28;20438;-69
2022/05/10 05:47:25;;;;;;;16.50;2.33;;;;;;;;;;5093661;28;20441;-69
2022/05/10 05:49:54;;;;;;;15.77;2.20;;;;;;;;;;5093895;28;20441;-69
2022/05/10 05:52:23;;;;;;;15.00;2.30;;;;;;;;;;5093859;28;20441;-69
2022/05/10 05:54:50;;;;;;;15.23;2.53;;;;;;;;;;5093865;28;20840;-69
2022/05/10 05:57:18;;;;;;;14.63;2.30;;;;;;;;;;5092539;28;20856;-69
2022/05/10 05:59:45;;;;;;;13.30;2.00;;;;;;;;;;5094238;28;20449;-69
2022/05/10 06:02:14;;;;;;;15.47;2.30;;;;;;;;;;5093785;28;20449;-69
2022/05/10 06:04:41;;;;;;;14.23;2.03;;;;;;;;;;5093090;28;21028;-69
2022/05/10 06:07:10;;;;;;;14.40;2.57;;;;;;;;;;5093764;28;20458;-69
2022/05/10 06:09:39;;;;;;;15.17;2.37;;;;;;;;;;5093632;28;20442;-69
2022/05/10 06:12:08;;;;;;;17.93;2.37;;;;;;;;;;5093664;28;20449;-69
2022/05/10 06:14:35;;;;;;;15.07;2.07;;;;;;;;;;5093455;28;20445;-69
2022/05/10 06:17:03;;;;;;;16.30;2.40;;;;;;;;;;5093229;28;20507;-69
2022/05/10 06:19:31;;;;;;;14.33;2.07;;;;;;;;;;5093037;28;20445;-69
2022/05/10 06:21:58;;;;;;;14.07;2.13;;;;;;;;;;5094168;28;20454;-70
2022/05/10 06:24:26;;;;;;;17.60;2.47;;;;;;;;;;5093171;28;20499;-69
2022/05/10 06:26:55;;;;;;;15.93;2.07;;;;;;;;;;5093166;28;20446;-69
2022/05/10 06:29:23;;;;;;;14.50;2.60;;;;;;;;;;5093003;28;20974;-69
2022/05/10 06:31:50;;;;;;;14.60;2.80;;;;;;;;;;5092935;28;20445;-69
2022/05/10 06:34:18;;;;;;;13.23;2.33;;;;;;;;;;5092967;28;20436;-69
2022/05/10 06:36:46;;;;;;;17.00;2.87;;;;;;;;;;5092976;28;20440;-69
2022/05/10 06:39:13;;;;;;;12.40;2.30;;;;;;;;;;5092673;28;20451;-69
2022/05/10 06:41:41;;;;;;;14.73;2.50;;;;;;;;;;5093002;28;20484;-70
2022/05/10 06:44:10;;;;;;;13.20;2.40;;;;;;;;;;5092801;28;20548;-69
2022/05/10 06:46:38;;;;;;;15.33;2.70;;;;;;;;;;5092691;28;20442;-69
2022/05/10 06:49:06;;;;;;;15.10;3.23;;;;;;;;;;5092871;28;20948;-69
2022/05/10 06:51:33;;;;;;;15.00;3.03;;;;;;;;;;5092694;28;20441;-69
2022/05/10 06:54:02;;;;;;;16.30;3.37;;;;;;;;;;5092763;28;20447;-69
2022/05/10 06:56:29;;;;;;;16.87;3.67;;;;;;;;;;5092509;28;20454;-70
2022/05/10 06:58:58;;;;;;;17.20;3.50;;;;;;;;;;5092472;28;20437;-69
2022/05/10 07:01:27;;;;;;;16.23;2.70;;;;;;;;;;5092722;28;20441;-69
2022/05/10 07:03:54;;;;;;;14.60;3.10;;;;;;;;;;5092630;28;20492;-69
2022/05/10 07:06:24;;;;;;;15.10;3.20;;;;;;;;;;5092625;28;20826;-69
2022/05/10 07:08:51;;;;;;;14.80;3.30;;;;;;;;;;5092536;28;20437;-69
2022/05/10 07:11:19;;;;;;;13.30;2.60;;;;;;;;;;5092277;28;20438;-69
2022/05/10 07:13:47;;;;;;;14.53;2.63;;;;;;;;;;5092449;28;20477;-70
2022/05/10 07:16:15;;;;;;;16.77;3.40;;;;;;;;;;5091532;28;20980;-69
2022/05/10 07:18:44;;;;;;;19.13;3.13;;;;;;;;;;5092079;28;20457;-69
2022/05/10 07:21:11;;;;;;;14.40;2.53;;;;;;;;;;5092588;28;20440;-69
2022/05/10 07:23:39;;;;;;;14.50;3.03;;;;;;;;;;5092239;28;20522;-69
2022/05/10 07:26:06;;;;;;;15.03;3.23;;;;;;;;;;5092206;28;20440;-69
2022/05/10 07:28:34;;;;;;;14.30;3.67;;;;;;;;;;5092188;28;20468;-69
2022/05/10 07:31:02;;;;;;;16.57;3.37;;;;;;;;;;5092228;28;20440;-69
2022/05/10 07:33:30;;;;;;;16.80;3.43;;;;;;;;;;5091887;28;20456;-69
2022/05/10 07:38:44;;;;;;;13.50;2.50;;;;;;;;;;5092332;28;20522;-69
2022/05/10 07:41:12;;;;;;;14.77;3.10;;;;;;;;;;5091836;28;20450;-69
2022/05/10 07:43:40;;;;;;;15.10;3.40;;;;;;;;;;5092180;28;20469;-69
2022/05/10 07:46:08;;;;;;;15.03;2.87;;;;;;;;;;5092143;28;20439;-69
2022/05/10 07:48:36;;;;;;;18.97;3.13;;;;;;;;;;5091783;28;20942;-69
2022/05/10 07:51:05;;;;;;;17.80;2.13;;;;;;;;;;5091776;28;20534;-69
2022/05/10 07:53:33;;;;;;;15.20;2.70;;;;;;;;;;5091923;28;20451;-69
2022/05/10 07:56:01;;;;;;;14.93;3.60;;;;;;;;;;5092068;28;20443;-69
2022/05/10 07:58:28;;;;;;;19.13;3.07;;;;;;;;;;5091698;28;20450;-69
2022/05/10 08:00:56;;;;;;;15.43;3.47;;;;;;;;;;5091844;28;20826;-69
2022/05/10 08:03:24;;;;;;;16.73;4.00;;;;;;;;;;5091320;28;20821;-69
2022/05/10 08:05:52;;;;;;;15.47;2.87;;;;;;;;;;5091539;28;20466;-69
2022/05/10 08:08:21;;;;;;;21.87;4.13;;;;;;;;;;5091995;28;20434;-69
2022/05/10 08:10:49;;;;;;;17.67;3.33;;;;;;;;;;5091819;28;20442;-69
2022/05/10 08:13:17;;;;;;;14.80;3.03;;;;;;;;;;5091412;28;20445;-69
2022/05/10 08:15:45;;;;;;;21.93;3.83;;;;;;;;;;5091624;28;20874;-69
2022/05/10 08:18:13;;;;;;;15.33;3.33;;;;;;;;;;5091880;28;20510;-69
2022/05/10 08:20:41;;;;;;;16.40;3.27;;;;;;;;;;5091926;28;20438;-69
2022/05/10 08:23:11;;;;;;;14.27;3.40;;;;;;;;;;5091536;28;20478;-69
2022/05/10 08:25:39;;;;;;;14.83;3.00;;;;;;;;;;5091702;28;20523;-69
2022/05/10 08:28:13;;;;;;;15.83;3.47;;;;;;;;;;5095432;28;20470;-69
2022/05/10 08:30:41;;;;;;;17.33;4.43;;;;;;;;;;5095868;28;20506;-69
2022/05/10 08:33:10;;;;;;;15.17;3.30;;;;;;;;;;5095651;28;20434;-69
2022/05/10 08:35:38;;;;;;;16.87;3.70;;;;;;;;;;5095492;28;20450;-69
2022/05/10 08:38:05;;;;;;;16.47;3.10;;;;;;;;;;5095639;28;20443;-69
2022/05/10 08:40:35;;;;;;;16.73;3.47;;;;;;;;;;5095246;28;20438;-69
2022/05/10 08:43:06;;;;;;;17.43;4.03;;;;;;;;;;5095052;28;20434;-69
2022/05/10 08:45:35;;;;;;;21.50;4.40;;;;;;;;;;5095052;28;20482;-69
2022/05/10 08:48:02;;;;;;;16.07;3.70;;;;;;;;;;5095116;28;20440;-69
2022/05/10 08:50:29;;;;;;;22.77;4.00;;;;;;;;;;5095005;28;20450;-69
2022/05/10 08:52:57;;;;;;;20.27;4.60;;;;;;;;;;5095005;28;20434;-69
2022/05/10 08:55:27;;;;;;;18.87;4.90;;;;;;;;;;5094671;28;20453;-69
2022/05/10 08:58:01;;;;;;;28.73;4.80;;;;;;;;;;5095349;28;20439;-69
2022/05/10 09:00:33;;;;;;;18.90;5.00;;;;;;;;;;5094853;28;20441;-69
2022/05/10 09:03:01;;;;;;;21.13;3.77;;;;;;;;;;5094833;28;20969;-69
2022/05/10 09:05:31;;;;;;;16.63;3.83;;;;;;;;;;5094521;28;20476;-69
2022/05/10 09:08:04;;;;;;;18.60;4.17;;;;;;;;;;5095226;28;20910;-69
2022/05/10 09:10:35;;;;;;;20.37;4.37;;;;;;;;;;5094690;28;20440;-69
2022/05/10 09:13:03;;;;;;;16.93;4.03;;;;;;;;;;5094640;28;20956;-69
2022/05/10 09:15:35;;;;;;;15.40;3.80;;;;;;;;;;5094477;28;20508;-69
2022/05/10 09:18:07;;;;;;;15.20;4.00;;;;;;;;;;5094622;28;20942;-69
2022/05/10 09:20:36;;;;;;;15.43;3.40;;;;;;;;;;5094519;28;20480;-69
2022/05/10 09:23:10;;;;;;;16.33;3.67;;;;;;;;;;5094229;28;20498;-69
2022/05/10 09:25:39;;;;;;;17.87;3.63;;;;;;;;;;5094346;28;20475;-69
2022/05/10 09:28:13;;;;;;;15.63;4.07;;;;;;;;;;5094352;28;20438;-69
2022/05/10 09:34:45;;;;;;;15.50;3.60;;;;;;;;;;5094401;28;20437;-69
2022/05/10 09:36:24;;;;;;;19.30;3.60;;;;;;;;;;5094490;28;20440;-69
2022/05/10 09:38:51;;;;;;;15.23;3.30;;;;;;;;;;5093211;28;20447;-69
2022/05/10 09:41:32;;;;;;;15.40;4.00;;;;;;;;;;5093721;28;20449;-69
2022/05/10 09:44:14;;;;;;;15.50;3.93;;;;;;;;;;5094269;28;20478;-69
2022/05/10 09:46:43;;;;;;;16.40;3.27;;;;;;;;;;5094336;28;20434;-69
2022/05/10 09:49:30;;;;;;;15.87;3.43;;;;;;;;;;5093913;28;20965;-69
2022/05/10 09:51:58;;;;;;;14.60;3.60;;;;;;;;;;5093940;28;20434;-69
2022/05/10 09:54:32;;;;;;;15.10;3.40;;;;;;;;;;5094051;28;20801;-69
2022/05/10 09:57:00;;;;;;;15.83;4.10;;;;;;;;;;5093769;28;20452;-69
2022/05/10 09:59:29;;;;;;;16.27;4.50;;;;;;;;;;5093442;28;20448;-69
2022/05/10 10:01:59;;;;;;;17.03;3.50;;;;;;;;;;5093680;28;20445;-69
2022/05/10 10:04:31;;;;;;;16.67;3.60;;;;;;;;;;5093581;28;20886;-69
2022/05/10 10:07:09;;;;;;;15.67;3.60;;;;;;;;;;5093571;28;20534;-69
2022/05/10 10:09:38;;;;;;;17.57;3.10;;;;;;;;;;5093426;28;20958;-69
2022/05/10 10:12:06;;;;;;;16.30;3.57;;;;;;;;;;5093429;28;20449;-69
2022/05/10 10:14:36;;;;;;;20.00;3.67;;;;;;;;;;5093382;28;20439;-69
2022/05/10 10:17:05;;;;;;;16.20;3.30;;;;;;;;;;5093434;28;20440;-69
2022/05/10 10:19:35;;;;;;;18.20;4.03;;;;;;;;;;5093128;28;20435;-69
2022/05/10 10:22:05;;;;;;;15.07;4.40;;;;;;;;;;5093468;28;20441;-69
2022/05/10 10:24:35;;;;;;;16.33;4.00;;;;;;;;;;5092919;28;20888;-69
2022/05/10 10:27:06;;;;;;;14.70;3.23;;;;;;;;;;5093088;28;20445;-69
2022/05/10 10:29:37;;;;;;;16.50;4.07;;;;;;;;;;5092944;28;20473;-69
2022/05/10 10:32:10;;;;;;;15.43;3.77;;;;;;;;;;5093425;28;20486;-69
2022/05/10 10:34:39;;;;;;;19.70;4.37;;;;;;;;;;5093027;28;20449;-69
2022/05/10 10:37:09;;;;;;;21.73;4.03;;;;;;;;;;5092949;28;20442;-69
2022/05/10 10:39:38;;;;;;;14.97;3.50;;;;;;;;;;5092818;28;20827;-69
2022/05/10 10:42:10;;;;;;;16.80;3.23;;;;;;;;;;5093164;28;20438;-69
2022/05/10 10:44:40;;;;;;;19.40;3.90;;;;;;;;;;5092880;28;20863;-69
2022/05/10 10:47:20;;;;;;;20.00;3.20;;;;;;;;;;5093112;28;20441;-69
2022/05/10 10:49:50;;;;;;;14.03;2.83;;;;;;;;;;5092887;28;20444;-69
2022/05/10 10:52:18;;;;;;;16.70;3.43;;;;;;;;;;5092756;28;20503;-69
2022/05/10 10:54:46;;;;;;;14.57;3.60;;;;;;;;;;5092680;28;20439;-69
2022/05/10 10:57:21;;;;;;;18.93;5.10;;;;;;;;;;5092550;28;20455;-69
2022/05/10 10:59:55;;;;;;;13.90;2.73;;;;;;;;;;5092822;28;20445;-69
2022/05/10 11:02:39;;;;;;;17.13;3.40;;;;;;;;;;5092727;28;20434;-69
2022/05/10 11:05:12;;;;;;;13.80;2.60;;;;;;;;;;5092923;28;20484;-69
2022/05/10 11:07:48;;;;;;;14.97;2.77;;;;;;;;;;5092769;28;20454;-69
2022/05/10 11:10:23;;;;;;;15.93;2.87;;;;;;;;;;5092450;28;21097;-69
2022/05/10 11:12:54;;;;;;;14.70;1.97;;;;;;;;;;5092435;28;20448;-70
2022/05/10 11:15:26;;;;;;;12.77;2.30;;;;;;;;;;5092490;28;20442;-70
2022/05/10 11:18:02;;;;;;;13.97;2.40;;;;;;;;;;5092280;28;21013;-70
2022/05/10 11:20:36;;;;;;;13.57;2.77;;;;;;;;;;5092268;28;20946;-69
2022/05/10 11:23:06;;;;;;;15.60;2.90;;;;;;;;;;5092136;28;20446;-69
2022/05/10 11:25:46;;;;;;;15.27;3.20;;;;;;;;;;5092420;28;20569;-69
2022/05/10 11:28:24;;;;;;;15.10;3.03;;;;;;;;;;5092454;28;20446;-70
2022/05/10 11:30:57;;;;;;;19.87;2.80;;;;;;;;;;5092567;28;20441;-70
2022/05/10 11:33:30;;;;;;;14.00;2.30;;;;;;;;;;5091848;28;20441;-69
2022/05/10 11:36:03;;;;;;;20.00;3.30;;;;;;;;;;5092077;28;20504;-70
2022/05/10 11:38:45;;;;;;;14.17;2.80;;;;;;;;;;5092077;28;20430;-69
2022/05/10 11:41:16;;;;;;;17.10;3.77;;;;;;;;;;5091737;28;20434;-69
2022/05/10 11:44:01;;;;;;;13.13;2.73;;;;;;;;;;5092122;28;20434;-70
2022/05/10 11:46:41;;;;;;;13.27;2.50;;;;;;;;;;5091800;28;20481;-69
2022/05/10 11:49:21;;;;;;;13.60;2.63;;;;;;;;;;5092265;28;20437;-69
2022/05/10 11:51:58;;;;;;;15.70;2.93;;;;;;;;;;5092344;28;20437;-70
2022/05/10 11:54:40;;;;;;;14.60;2.90;;;;;;;;;;5092043;28;20434;-69
2022/05/10 11:57:11;;;;;;;16.93;3.00;;;;;;;;;;5091840;28;20490;-69
2022/05/10 11:59:40;;;;;;;14.77;2.87;;;;;;;;;;5091786;28;20434;-70
2022/05/10 12:02:29;;;;;;;13.63;2.53;;;;;;;;;;5094982;28;20434;-70
2022/05/10 12:05:16;;;;;;;17.00;2.93;;;;;;;;;;5095683;28;20499;-70
2022/05/10 12:07:47;;;;;;;13.40;2.57;;;;;;;;;;5095813;28;20465;-70
2022/05/10 12:10:35;;;;;;;18.87;2.27;;;;;;;;;;5096510;28;20486;-70
2022/05/10 12:13:04;;;;;;;15.73;2.73;;;;;;;;;;5095938;28;20441;-70
2022/05/10 12:21:20;;;;;;;17.33;2.60;;;;;;;;;;5095545;28;20445;-70
2022/05/10 12:24:06;;;;;;;14.17;2.60;;;;;;;;;;5095528;28;20516;-70
2022/05/10 12:26:35;;;;;;;14.37;2.83;;;;;;;;;;5095424;28;20513;-70
2022/05/10 12:29:02;;;;;;;15.17;2.67;;;;;;;;;;5095925;28;20867;-69
2022/05/10 12:31:54;;;;;;;14.60;2.00;;;;;;;;;;5095309;28;20446;-70
2022/05/10 12:34:36;;;;;;;14.90;2.60;;;;;;;;;;5095319;28;20442;-70
2022/05/10 12:37:22;;;;;;;15.93;2.23;;;;;;;;;;5095377;28;20452;-70
2022/05/10 12:39:56;;;;;;;16.20;2.87;;;;;;;;;;5095402;28;20521;-70
2022/05/10 12:42:25;;;;;;;15.73;2.37;;;;;;;;;;5095292;28;20448;-69
2022/05/10 12:44:59;;;;;;;15.10;2.90;;;;;;;;;;5095018;28;20858;-69
2022/05/10 12:47:37;;;;;;;13.70;3.00;;;;;;;;;;5094968;28;20436;-70
2022/05/10 12:50:09;;;;;;;14.50;2.47;;;;;;;;;;5095564;28;20437;-69
2022/05/10 12:52:40;;;;;;;14.00;2.33;;;;;;;;;;5094971;28;20438;-70
2022/05/10 12:55:11;;;;;;;13.10;1.90;;;;;;;;;;5094961;28;20460;-70
2022/05/10 12:57:44;;;;;;;14.60;2.23;;;;;;;;;;5095015;28;20801;-70
2022/05/10 13:00:13;;;;;;;13.37;2.47;;;;;;;;;;5095417;28;20445;-70
2022/05/10 13:02:42;;;;;;;14.30;2.10;;;;;;;;;;5095019;28;20441;-69
2022/05/10 13:05:15;;;;;;;14.30;2.60;;;;;;;;;;5094673;28;20473;-69
2022/05/10 13:07:53;;;;;;;16.80;2.90;;;;;;;;;;5094651;28;20453;-70
2022/05/10 13:10:23;;;;;;;14.23;2.33;;;;;;;;;;5094986;28;20536;-69
2022/05/10 13:12:51;;;;;;;16.07;2.00;;;;;;;;;;5093597;28;20433;-70
2022/05/10 13:15:23;;;;;;;14.77;2.43;;;;;;;;;;5094613;28;20799;-70
2022/05/10 13:17:52;;;;;;;14.87;2.43;;;;;;;;;;5094503;28;20552;-70
2022/05/10 13:20:21;;;;;;;13.53;2.33;;;;;;;;;;5094517;28;20438;-70
2022/05/10 13:22:50;;;;;;;13.10;1.87;;;;;;;;;;5094220;28;20454;-70
2022/05/10 13:25:25;;;;;;;15.07;3.37;;;;;;;;;;5094341;28;20560;-70
2022/05/10 13:28:07;;;;;;;14.43;2.80;;;;;;;;;;5094579;28;20449;-70
2022/05/10 13:30:35;;;;;;;13.30;2.27;;;;;;;;;;5094588;28;20438;-70
2022/05/10 13:33:02;;;;;;;17.23;2.63;;;;;;;;;;5094486;28;20442;-70
2022/05/10 13:35:31;;;;;;;14.90;2.60;;;;;;;;;;5093968;28;20903;-70
2022/05/10 13:38:00;;;;;;;12.60;2.10;;;;;;;;;;5094311;28;20444;-70
2022/05/10 13:40:29;;;;;;;14.43;2.10;;;;;;;;;;5094084;28;20517;-70
2022/05/10 13:43:00;;;;;;;14.00;2.23;;;;;;;;;;5093953;28;20443;-70
2022/05/10 13:45:29;;;;;;;15.33;3.33;;;;;;;;;;5094063;28;20478;-70
2022/05/10 13:48:00;;;;;;;18.37;2.50;;;;;;;;;;5093935;28;20433;-70
2022/05/10 13:50:29;;;;;;;13.57;2.67;;;;;;;;;;5093963;28;20446;-70
2022/05/10 13:52:59;;;;;;;12.70;1.97;;;;;;;;;;5094065;28;20505;-70
2022/05/10 13:55:27;;;;;;;14.70;2.77;;;;;;;;;;5093595;28;20447;-70
2022/05/10 13:57:56;;;;;;;13.70;2.10;;;;;;;;;;5094087;28;20523;-70
2022/05/10 14:00:27;;;;;;;14.13;2.40;;;;;;;;;;5093811;28;20434;-71
2022/05/10 14:02:54;;;;;;;14.30;2.50;;;;;;;;;;5093862;28;20435;-70
2022/05/10 14:05:23;;;;;;;14.93;2.40;;;;;;;;;;5093531;28;20500;-70
2022/05/10 14:07:55;;;;;;;14.90;3.00;;;;;;;;;;5093632;28;20470;-70
2022/05/10 14:10:24;;;;;;;14.43;2.50;;;;;;;;;;5093667;28;20446;-71
2022/05/10 14:12:53;;;;;;;15.07;2.80;;;;;;;;;;5093672;28;20426;-70
2022/05/10 14:15:21;;;;;;;13.23;2.43;;;;;;;;;;5093294;28;20447;-70
2022/05/10 14:17:52;;;;;;;13.57;2.60;;;;;;;;;;5093495;28;20446;-70
2022/05/10 14:20:24;;;;;;;16.40;3.20;;;;;;;;;;5093483;28;20495;-70
2022/05/10 14:22:54;;;;;;;16.00;2.80;;;;;;;;;;5093464;28;20803;-70
2022/05/10 14:25:25;;;;;;;13.80;2.47;;;;;;;;;;5092681;28;20483;-70
2022/05/10 14:28:00;;;;;;;14.00;2.50;;;;;;;;;;5093563;28;20431;-69
2022/05/10 14:30:28;;;;;;;12.67;1.93;;;;;;;;;;5093485;28;20861;-69
2022/05/10 14:32:57;;;;;;;14.80;2.70;;;;;;;;;;5093308;28;20440;-69
2022/05/10 14:35:26;;;;;;;13.33;2.60;;;;;;;;;;5093281;28;20488;-70
2022/05/10 14:37:54;;;;;;;12.30;2.20;;;;;;;;;;5093047;28;20447;-70
2022/05/10 14:40:28;;;;;;;13.63;2.60;;;;;;;;;;5093387;28;20443;-69
2022/05/10 14:43:02;;;;;;;17.10;2.60;;;;;;;;;;5093867;28;20955;-69
2022/05/10 14:45:34;;;;;;;13.13;2.50;;;;;;;;;;5092452;28;20491;-69
2022/05/10 14:48:20;;;;;;;16.43;2.77;;;;;;;;;;5092746;28;20435;-69
2022/05/10 14:50:51;;;;;;;17.00;2.97;;;;;;;;;;5093005;28;20434;-68
2022/05/10 14:53:20;;;;;;;16.37;2.53;;;;;;;;;;5092688;28;20473;-68
2022/05/10 14:55:48;;;;;;;15.10;3.60;;;;;;;;;;5092684;28;20850;-69
2022/05/10 14:58:22;;;;;;;13.83;3.10;;;;;;;;;;5092548;28;20947;-68
2022/05/10 15:01:00;;;;;;;15.67;3.43;;;;;;;;;;5092595;28;20435;-68
2022/05/10 15:03:29;;;;;;;13.90;3.13;;;;;;;;;;5091724;28;20435;-68
2022/05/10 15:05:56;;;;;;;14.33;2.70;;;;;;;;;;5092514;28;20490;-68